VAR weather

Varna Airport
Varna, Varna Province, Bulgaria

Public forecast

Using degrees Celsius for public forecast. Weather courtesy of forecast.io.

METAR (pilot weather report)

Retrieved 2019/07/19 11:30 UTC (0 seconds ago):

LBWN 191130Z 12015KT 9999 FEW036 28/11 Q1016 NOSIG

TAF (pilot weather forecast)

Retrieved 2019/07/19 06:18 UTC (5 hours ago):

TAF LBWN 190500Z 1906/2006 VRB04KT CAVOK BECMG 1908/1910 11012KT BECMG 1917/1919 VRB04KT TEMPO 2001/2005 3000 BR SCT005